sensor_id;sensor_type;location;lat;lon;timestamp;P1;durP1;ratioP1;P2;durP2;ratioP2
10617;SDS011;5356;43.526;26.534;2024-02-28T00:01:37;8.77;;;4.85;;
10617;SDS011;5356;43.526;26.534;2024-02-28T00:04:03;14.75;;;5.30;;
10617;SDS011;5356;43.526;26.534;2024-02-28T00:06:29;10.73;;;4.45;;
10617;SDS011;5356;43.526;26.534;2024-02-28T00:08:54;12.63;;;5.57;;
10617;SDS011;5356;43.526;26.534;2024-02-28T00:11:20;10.63;;;5.18;;
10617;SDS011;5356;43.526;26.534;2024-02-28T00:13:46;17.40;;;5.32;;
10617;SDS011;5356;43.526;26.534;2024-02-28T00:16:12;10.50;;;5.15;;
10617;SDS011;5356;43.526;26.534;2024-02-28T00:18:37;9.63;;;4.30;;
10617;SDS011;5356;43.526;26.534;2024-02-28T00:21:03;12.98;;;5.40;;
10617;SDS011;5356;43.526;26.534;2024-02-28T00:23:29;15.35;;;5.65;;
10617;SDS011;5356;43.526;26.534;2024-02-28T00:25:55;9.98;;;5.75;;
10617;SDS011;5356;43.526;26.534;2024-02-28T00:28:20;15.82;;;5.25;;
10617;SDS011;5356;43.526;26.534;2024-02-28T00:30:46;12.38;;;6.15;;
10617;SDS011;5356;43.526;26.534;2024-02-28T00:33:11;12.50;;;5.40;;
10617;SDS011;5356;43.526;26.534;2024-02-28T00:35:37;11.85;;;5.82;;
10617;SDS011;5356;43.526;26.534;2024-02-28T00:38:02;12.50;;;5.50;;
10617;SDS011;5356;43.526;26.534;2024-02-28T00:40:28;7.72;;;4.60;;
10617;SDS011;5356;43.526;26.534;2024-02-28T00:42:53;10.52;;;5.20;;
10617;SDS011;5356;43.526;26.534;2024-02-28T00:45:19;11.38;;;5.30;;
10617;SDS011;5356;43.526;26.534;2024-02-28T00:47:45;13.07;;;5.95;;
10617;SDS011;5356;43.526;26.534;2024-02-28T00:50:10;12.88;;;5.55;;
10617;SDS011;5356;43.526;26.534;2024-02-28T00:52:36;11.93;;;4.80;;
10617;SDS011;5356;43.526;26.534;2024-02-28T00:55:02;18.02;;;5.10;;
10617;SDS011;5356;43.526;26.534;2024-02-28T00:57:30;11.05;;;4.85;;
10617;SDS011;5356;43.526;26.534;2024-02-28T00:59:56;15.55;;;5.80;;
10617;SDS011;5356;43.526;26.534;2024-02-28T01:02:21;15.32;;;4.97;;
10617;SDS011;5356;43.526;26.534;2024-02-28T01:04:47;13.13;;;4.85;;
10617;SDS011;5356;43.526;26.534;2024-02-28T01:07:13;11.20;;;5.13;;
10617;SDS011;5356;43.526;26.534;2024-02-28T01:09:38;12.63;;;5.30;;
10617;SDS011;5356;43.526;26.534;2024-02-28T01:12:04;9.77;;;5.43;;
10617;SDS011;5356;43.526;26.534;2024-02-28T01:14:29;12.77;;;4.88;;
10617;SDS011;5356;43.526;26.534;2024-02-28T01:16:55;12.25;;;5.60;;
10617;SDS011;5356;43.526;26.534;2024-02-28T01:19:20;10.38;;;4.80;;
10617;SDS011;5356;43.526;26.534;2024-02-28T01:21:46;15.23;;;5.22;;
10617;SDS011;5356;43.526;26.534;2024-02-28T01:24:11;11.43;;;4.60;;
10617;SDS011;5356;43.526;26.534;2024-02-28T01:26:37;8.88;;;4.80;;
10617;SDS011;5356;43.526;26.534;2024-02-28T01:29:02;10.75;;;5.82;;
10617;SDS011;5356;43.526;26.534;2024-02-28T01:31:28;11.82;;;5.63;;
10617;SDS011;5356;43.526;26.534;2024-02-28T01:33:53;9.40;;;5.47;;
10617;SDS011;5356;43.526;26.534;2024-02-28T01:36:20;13.02;;;6.93;;
10617;SDS011;5356;43.526;26.534;2024-02-28T01:38:46;9.27;;;5.40;;
10617;SDS011;5356;43.526;26.534;2024-02-28T01:41:11;10.82;;;5.07;;
10617;SDS011;5356;43.526;26.534;2024-02-28T01:43:37;11.98;;;5.32;;
10617;SDS011;5356;43.526;26.534;2024-02-28T01:46:03;12.90;;;5.10;;
10617;SDS011;5356;43.526;26.534;2024-02-28T01:48:34;12.38;;;4.88;;
10617;SDS011;5356;43.526;26.534;2024-02-28T01:50:59;9.02;;;4.93;;
10617;SDS011;5356;43.526;26.534;2024-02-28T01:53:25;8.40;;;4.68;;
10617;SDS011;5356;43.526;26.534;2024-02-28T01:55:51;10.55;;;5.50;;
10617;SDS011;5356;43.526;26.534;2024-02-28T01:58:17;12.52;;;5.20;;
10617;SDS011;5356;43.526;26.534;2024-02-28T02:00:43;12.48;;;5.22;;
10617;SDS011;5356;43.526;26.534;2024-02-28T02:03:11;15.80;;;6.13;;
10617;SDS011;5356;43.526;26.534;2024-02-28T02:05:36;12.43;;;4.70;;
10617;SDS011;5356;43.526;26.534;2024-02-28T02:08:02;10.90;;;6.35;;
10617;SDS011;5356;43.526;26.534;2024-02-28T02:10:27;10.90;;;5.55;;
10617;SDS011;5356;43.526;26.534;2024-02-28T02:12:53;14.82;;;4.75;;
10617;SDS011;5356;43.526;26.534;2024-02-28T02:15:19;9.70;;;5.10;;
10617;SDS011;5356;43.526;26.534;2024-02-28T02:17:44;10.65;;;5.68;;
10617;SDS011;5356;43.526;26.534;2024-02-28T02:20:10;19.10;;;5.38;;
10617;SDS011;5356;43.526;26.534;2024-02-28T02:22:39;12.27;;;7.00;;
10617;SDS011;5356;43.526;26.534;2024-02-28T02:25:05;13.15;;;5.78;;
10617;SDS011;5356;43.526;26.534;2024-02-28T02:27:31;12.77;;;6.57;;
10617;SDS011;5356;43.526;26.534;2024-02-28T02:29:56;13.68;;;6.90;;
10617;SDS011;5356;43.526;26.534;2024-02-28T02:32:22;16.98;;;6.70;;
10617;SDS011;5356;43.526;26.534;2024-02-28T02:34:47;17.77;;;6.53;;
10617;SDS011;5356;43.526;26.534;2024-02-28T02:37:13;10.32;;;5.30;;
10617;SDS011;5356;43.526;26.534;2024-02-28T02:39:38;13.68;;;5.47;;
10617;SDS011;5356;43.526;26.534;2024-02-28T02:42:04;7.47;;;4.72;;
10617;SDS011;5356;43.526;26.534;2024-02-28T02:44:30;9.88;;;3.85;;
10617;SDS011;5356;43.526;26.534;2024-02-28T02:46:55;9.02;;;4.63;;
10617;SDS011;5356;43.526;26.534;2024-02-28T02:49:21;6.78;;;3.88;;
10617;SDS011;5356;43.526;26.534;2024-02-28T02:51:46;7.22;;;4.60;;
10617;SDS011;5356;43.526;26.534;2024-02-28T02:54:12;13.40;;;5.00;;
10617;SDS011;5356;43.526;26.534;2024-02-28T02:56:40;11.98;;;4.90;;
10617;SDS011;5356;43.526;26.534;2024-02-28T02:59:06;11.40;;;4.72;;
10617;SDS011;5356;43.526;26.534;2024-02-28T03:01:32;10.68;;;5.28;;
10617;SDS011;5356;43.526;26.534;2024-02-28T03:03:57;9.10;;;4.80;;
10617;SDS011;5356;43.526;26.534;2024-02-28T03:06:23;7.53;;;4.78;;
10617;SDS011;5356;43.526;26.534;2024-02-28T03:08:49;12.15;;;4.82;;
10617;SDS011;5356;43.526;26.534;2024-02-28T03:11:14;9.43;;;3.78;;
10617;SDS011;5356;43.526;26.534;2024-02-28T03:13:40;8.38;;;4.97;;
10617;SDS011;5356;43.526;26.534;2024-02-28T03:16:05;9.75;;;3.80;;
10617;SDS011;5356;43.526;26.534;2024-02-28T03:18:31;6.85;;;3.42;;
10617;SDS011;5356;43.526;26.534;2024-02-28T03:20:57;8.75;;;4.32;;
10617;SDS011;5356;43.526;26.534;2024-02-28T03:23:22;11.07;;;4.25;;
10617;SDS011;5356;43.526;26.534;2024-02-28T03:25:48;7.60;;;3.42;;
10617;SDS011;5356;43.526;26.534;2024-02-28T03:28:13;6.20;;;4.35;;
10617;SDS011;5356;43.526;26.534;2024-02-28T03:30:39;12.25;;;4.70;;
10617;SDS011;5356;43.526;26.534;2024-02-28T03:33:04;8.23;;;4.28;;
10617;SDS011;5356;43.526;26.534;2024-02-28T03:35:30;6.63;;;3.88;;
10617;SDS011;5356;43.526;26.534;2024-02-28T03:37:55;11.43;;;4.10;;
10617;SDS011;5356;43.526;26.534;2024-02-28T03:40:21;7.57;;;3.30;;
10617;SDS011;5356;43.526;26.534;2024-02-28T03:42:46;7.35;;;4.07;;
10617;SDS011;5356;43.526;26.534;2024-02-28T03:45:12;8.88;;;4.78;;
10617;SDS011;5356;43.526;26.534;2024-02-28T03:47:37;10.93;;;4.47;;
10617;SDS011;5356;43.526;26.534;2024-02-28T03:50:03;9.02;;;4.85;;
10617;SDS011;5356;43.526;26.534;2024-02-28T03:52:29;10.27;;;4.63;;
10617;SDS011;5356;43.526;26.534;2024-02-28T03:54:55;6.78;;;4.25;;
10617;SDS011;5356;43.526;26.534;2024-02-28T03:57:20;7.50;;;4.45;;
10617;SDS011;5356;43.526;26.534;2024-02-28T03:59:46;7.80;;;4.53;;
10617;SDS011;5356;43.526;26.534;2024-02-28T04:02:11;7.80;;;3.45;;
10617;SDS011;5356;43.526;26.534;2024-02-28T04:04:37;11.85;;;4.05;;
10617;SDS011;5356;43.526;26.534;2024-02-28T04:07:02;8.95;;;4.28;;
10617;SDS011;5356;43.526;26.534;2024-02-28T04:09:27;9.65;;;4.82;;
10617;SDS011;5356;43.526;26.534;2024-02-28T04:11:53;11.55;;;5.32;;
10617;SDS011;5356;43.526;26.534;2024-02-28T04:14:19;11.13;;;4.95;;
10617;SDS011;5356;43.526;26.534;2024-02-28T04:16:44;11.68;;;4.93;;
10617;SDS011;5356;43.526;26.534;2024-02-28T04:19:10;10.25;;;5.50;;
10617;SDS011;5356;43.526;26.534;2024-02-28T04:21:36;6.75;;;5.10;;
10617;SDS011;5356;43.526;26.534;2024-02-28T04:24:03;7.30;;;4.95;;
10617;SDS011;5356;43.526;26.534;2024-02-28T04:26:29;8.60;;;6.03;;
10617;SDS011;5356;43.526;26.534;2024-02-28T04:28:55;8.13;;;5.05;;
10617;SDS011;5356;43.526;26.534;2024-02-28T04:31:21;12.55;;;5.68;;
10617;SDS011;5356;43.526;26.534;2024-02-28T04:33:47;14.82;;;7.80;;
10617;SDS011;5356;43.526;26.534;2024-02-28T04:36:12;13.68;;;5.97;;
10617;SDS011;5356;43.526;26.534;2024-02-28T04:38:38;9.95;;;5.10;;
10617;SDS011;5356;43.526;26.534;2024-02-28T04:41:03;11.02;;;5.30;;
10617;SDS011;5356;43.526;26.534;2024-02-28T04:43:28;12.63;;;6.35;;
10617;SDS011;5356;43.526;26.534;2024-02-28T04:45:54;11.20;;;5.50;;
10617;SDS011;5356;43.526;26.534;2024-02-28T04:48:19;12.13;;;5.40;;
10617;SDS011;5356;43.526;26.534;2024-02-28T04:50:45;9.52;;;5.78;;
10617;SDS011;5356;43.526;26.534;2024-02-28T04:53:11;9.38;;;4.80;;
10617;SDS011;5356;43.526;26.534;2024-02-28T04:55:36;8.63;;;4.75;;
10617;SDS011;5356;43.526;26.534;2024-02-28T04:58:02;17.38;;;6.80;;
10617;SDS011;5356;43.526;26.534;2024-02-28T05:00:27;20.92;;;9.48;;
10617;SDS011;5356;43.526;26.534;2024-02-28T05:02:53;12.30;;;6.80;;
10617;SDS011;5356;43.526;26.534;2024-02-28T05:05:18;10.82;;;4.75;;
10617;SDS011;5356;43.526;26.534;2024-02-28T05:07:44;17.95;;;7.03;;
10617;SDS011;5356;43.526;26.534;2024-02-28T05:10:09;13.63;;;6.50;;
10617;SDS011;5356;43.526;26.534;2024-02-28T05:12:35;8.57;;;4.40;;
10617;SDS011;5356;43.526;26.534;2024-02-28T05:15:01;7.90;;;5.00;;
10617;SDS011;5356;43.526;26.534;2024-02-28T05:17:26;11.13;;;6.28;;
10617;SDS011;5356;43.526;26.534;2024-02-28T05:19:52;10.95;;;6.15;;
10617;SDS011;5356;43.526;26.534;2024-02-28T05:22:18;11.48;;;6.22;;
10617;SDS011;5356;43.526;26.534;2024-02-28T05:24:45;13.30;;;8.75;;
10617;SDS011;5356;43.526;26.534;2024-02-28T05:27:11;14.07;;;6.75;;
10617;SDS011;5356;43.526;26.534;2024-02-28T05:29:36;17.42;;;8.43;;
10617;SDS011;5356;43.526;26.534;2024-02-28T05:32:02;21.60;;;11.02;;
10617;SDS011;5356;43.526;26.534;2024-02-28T05:34:28;41.85;;;22.10;;
10617;SDS011;5356;43.526;26.534;2024-02-28T05:36:54;16.05;;;11.05;;
10617;SDS011;5356;43.526;26.534;2024-02-28T05:39:19;15.48;;;10.90;;
10617;SDS011;5356;43.526;26.534;2024-02-28T05:41:45;20.15;;;12.00;;
10617;SDS011;5356;43.526;26.534;2024-02-28T05:44:11;15.20;;;9.75;;
10617;SDS011;5356;43.526;26.534;2024-02-28T05:46:36;18.88;;;11.80;;
10617;SDS011;5356;43.526;26.534;2024-02-28T05:49:02;21.60;;;13.63;;
10617;SDS011;5356;43.526;26.534;2024-02-28T05:51:29;30.55;;;18.25;;
10617;SDS011;5356;43.526;26.534;2024-02-28T05:53:54;23.90;;;14.00;;
10617;SDS011;5356;43.526;26.534;2024-02-28T05:56:20;14.07;;;8.13;;
10617;SDS011;5356;43.526;26.534;2024-02-28T05:58:46;14.30;;;7.80;;
10617;SDS011;5356;43.526;26.534;2024-02-28T06:01:14;14.30;;;7.63;;
10617;SDS011;5356;43.526;26.534;2024-02-28T06:03:42;13.65;;;6.65;;
10617;SDS011;5356;43.526;26.534;2024-02-28T06:06:08;13.52;;;7.47;;
10617;SDS011;5356;43.526;26.534;2024-02-28T06:08:34;10.38;;;6.63;;
10617;SDS011;5356;43.526;26.534;2024-02-28T06:11:00;9.65;;;5.45;;
10617;SDS011;5356;43.526;26.534;2024-02-28T06:13:27;12.85;;;7.15;;
10617;SDS011;5356;43.526;26.534;2024-02-28T06:15:53;10.20;;;5.70;;
10617;SDS011;5356;43.526;26.534;2024-02-28T06:18:19;11.88;;;6.65;;
10617;SDS011;5356;43.526;26.534;2024-02-28T06:20:44;9.25;;;4.68;;
10617;SDS011;5356;43.526;26.534;2024-02-28T06:23:10;8.60;;;5.40;;
10617;SDS011;5356;43.526;26.534;2024-02-28T06:25:35;8.18;;;5.10;;
10617;SDS011;5356;43.526;26.534;2024-02-28T06:28:01;20.38;;;10.13;;
10617;SDS011;5356;43.526;26.534;2024-02-28T06:30:28;24.45;;;13.43;;
10617;SDS011;5356;43.526;26.534;2024-02-28T06:32:53;38.33;;;20.23;;
10617;SDS011;5356;43.526;26.534;2024-02-28T06:35:19;69.85;;;35.80;;
10617;SDS011;5356;43.526;26.534;2024-02-28T06:37:44;24.42;;;15.50;;
10617;SDS011;5356;43.526;26.534;2024-02-28T06:40:15;14.07;;;9.52;;
10617;SDS011;5356;43.526;26.534;2024-02-28T06:42:41;16.23;;;8.70;;
10617;SDS011;5356;43.526;26.534;2024-02-28T06:45:06;9.98;;;6.05;;
10617;SDS011;5356;43.526;26.534;2024-02-28T06:47:33;9.93;;;5.95;;
10617;SDS011;5356;43.526;26.534;2024-02-28T06:50:01;6.43;;;4.45;;
10617;SDS011;5356;43.526;26.534;2024-02-28T06:52:27;9.38;;;6.50;;
10617;SDS011;5356;43.526;26.534;2024-02-28T06:54:53;11.85;;;8.55;;
10617;SDS011;5356;43.526;26.534;2024-02-28T06:57:18;7.03;;;4.93;;
10617;SDS011;5356;43.526;26.534;2024-02-28T06:59:43;8.15;;;5.13;;
10617;SDS011;5356;43.526;26.534;2024-02-28T07:02:09;11.05;;;7.05;;
10617;SDS011;5356;43.526;26.534;2024-02-28T07:04:34;11.00;;;6.70;;
10617;SDS011;5356;43.526;26.534;2024-02-28T07:07:00;9.50;;;5.47;;
10617;SDS011;5356;43.526;26.534;2024-02-28T07:09:25;7.03;;;4.38;;
10617;SDS011;5356;43.526;26.534;2024-02-28T07:11:54;10.63;;;5.63;;
10617;SDS011;5356;43.526;26.534;2024-02-28T07:14:20;9.98;;;5.07;;
10617;SDS011;5356;43.526;26.534;2024-02-28T07:16:45;9.00;;;4.88;;
10617;SDS011;5356;43.526;26.534;2024-02-28T07:19:11;22.33;;;10.68;;
10617;SDS011;5356;43.526;26.534;2024-02-28T07:21:36;25.67;;;12.38;;
10617;SDS011;5356;43.526;26.534;2024-02-28T07:24:02;65.43;;;29.52;;
10617;SDS011;5356;43.526;26.534;2024-02-28T07:26:30;36.42;;;19.98;;
10617;SDS011;5356;43.526;26.534;2024-02-28T07:28:55;17.15;;;11.07;;
10617;SDS011;5356;43.526;26.534;2024-02-28T07:31:21;13.95;;;9.18;;
10617;SDS011;5356;43.526;26.534;2024-02-28T07:33:47;11.05;;;6.15;;
10617;SDS011;5356;43.526;26.534;2024-02-28T07:36:12;8.05;;;4.72;;
10617;SDS011;5356;43.526;26.534;2024-02-28T07:38:38;7.97;;;4.80;;
10617;SDS011;5356;43.526;26.534;2024-02-28T07:41:05;21.33;;;10.50;;
10617;SDS011;5356;43.526;26.534;2024-02-28T07:43:31;19.00;;;8.77;;
10617;SDS011;5356;43.526;26.534;2024-02-28T07:46:01;12.40;;;7.32;;
10617;SDS011;5356;43.526;26.534;2024-02-28T07:48:27;11.98;;;7.18;;
10617;SDS011;5356;43.526;26.534;2024-02-28T07:50:53;7.80;;;4.20;;
10617;SDS011;5356;43.526;26.534;2024-02-28T07:53:18;10.55;;;6.22;;
10617;SDS011;5356;43.526;26.534;2024-02-28T07:55:43;15.40;;;7.97;;
10617;SDS011;5356;43.526;26.534;2024-02-28T07:58:10;12.88;;;6.45;;
10617;SDS011;5356;43.526;26.534;2024-02-28T08:00:35;10.68;;;4.65;;
10617;SDS011;5356;43.526;26.534;2024-02-28T08:03:01;9.13;;;4.72;;
10617;SDS011;5356;43.526;26.534;2024-02-28T08:05:27;17.63;;;5.53;;
10617;SDS011;5356;43.526;26.534;2024-02-28T08:07:53;9.30;;;4.85;;
10617;SDS011;5356;43.526;26.534;2024-02-28T08:10:19;9.07;;;4.18;;
10617;SDS011;5356;43.526;26.534;2024-02-28T08:12:45;8.00;;;3.58;;
10617;SDS011;5356;43.526;26.534;2024-02-28T08:15:10;12.15;;;5.63;;
10617;SDS011;5356;43.526;26.534;2024-02-28T08:17:35;8.25;;;3.75;;
10617;SDS011;5356;43.526;26.534;2024-02-28T08:20:02;10.27;;;4.68;;
10617;SDS011;5356;43.526;26.534;2024-02-28T08:22:30;6.55;;;3.95;;
10617;SDS011;5356;43.526;26.534;2024-02-28T08:24:56;6.60;;;3.72;;
10617;SDS011;5356;43.526;26.534;2024-02-28T08:27:21;10.18;;;4.68;;
10617;SDS011;5356;43.526;26.534;2024-02-28T08:29:48;10.07;;;4.38;;
10617;SDS011;5356;43.526;26.534;2024-02-28T08:32:14;5.10;;;3.80;;
10617;SDS011;5356;43.526;26.534;2024-02-28T08:34:43;6.95;;;4.13;;
10617;SDS011;5356;43.526;26.534;2024-02-28T08:37:09;12.55;;;6.03;;
10617;SDS011;5356;43.526;26.534;2024-02-28T08:39:35;7.55;;;5.32;;
10617;SDS011;5356;43.526;26.534;2024-02-28T08:42:00;10.55;;;4.10;;
10617;SDS011;5356;43.526;26.534;2024-02-28T08:44:25;7.80;;;4.43;;
10617;SDS011;5356;43.526;26.534;2024-02-28T08:46:51;10.73;;;5.13;;
10617;SDS011;5356;43.526;26.534;2024-02-28T08:49:16;9.95;;;4.20;;
10617;SDS011;5356;43.526;26.534;2024-02-28T08:51:42;10.07;;;4.28;;
10617;SDS011;5356;43.526;26.534;2024-02-28T08:54:07;12.32;;;5.25;;
10617;SDS011;5356;43.526;26.534;2024-02-28T08:56:33;9.55;;;4.93;;
10617;SDS011;5356;43.526;26.534;2024-02-28T08:58:59;8.02;;;3.83;;
10617;SDS011;5356;43.526;26.534;2024-02-28T09:01:24;12.32;;;5.80;;
10617;SDS011;5356;43.526;26.534;2024-02-28T09:03:50;9.18;;;4.93;;
10617;SDS011;5356;43.526;26.534;2024-02-28T09:06:15;8.45;;;4.00;;
10617;SDS011;5356;43.526;26.534;2024-02-28T09:08:41;8.77;;;3.60;;
10617;SDS011;5356;43.526;26.534;2024-02-28T09:11:07;9.27;;;4.50;;
10617;SDS011;5356;43.526;26.534;2024-02-28T09:13:32;4.97;;;3.00;;
10617;SDS011;5356;43.526;26.534;2024-02-28T09:15:58;13.13;;;8.07;;
10617;SDS011;5356;43.526;26.534;2024-02-28T09:18:23;12.85;;;7.50;;
10617;SDS011;5356;43.526;26.534;2024-02-28T09:20:49;13.75;;;5.25;;
10617;SDS011;5356;43.526;26.534;2024-02-28T09:23:14;7.18;;;3.28;;
10617;SDS011;5356;43.526;26.534;2024-02-28T09:25:40;7.43;;;3.38;;
10617;SDS011;5356;43.526;26.534;2024-02-28T09:28:05;12.02;;;4.85;;
10617;SDS011;5356;43.526;26.534;2024-02-28T09:30:31;7.40;;;3.70;;
10617;SDS011;5356;43.526;26.534;2024-02-28T09:32:56;13.25;;;3.72;;
10617;SDS011;5356;43.526;26.534;2024-02-28T09:35:22;5.13;;;3.17;;
10617;SDS011;5356;43.526;26.534;2024-02-28T09:37:47;13.18;;;6.38;;
10617;SDS011;5356;43.526;26.534;2024-02-28T09:40:13;8.00;;;4.15;;
10617;SDS011;5356;43.526;26.534;2024-02-28T09:42:38;8.88;;;3.58;;
10617;SDS011;5356;43.526;26.534;2024-02-28T09:45:04;7.88;;;3.80;;
10617;SDS011;5356;43.526;26.534;2024-02-28T09:47:33;10.15;;;3.53;;
10617;SDS011;5356;43.526;26.534;2024-02-28T09:49:58;9.27;;;4.05;;
10617;SDS011;5356;43.526;26.534;2024-02-28T09:52:27;8.07;;;4.13;;
10617;SDS011;5356;43.526;26.534;2024-02-28T09:54:53;10.77;;;3.72;;
10617;SDS011;5356;43.526;26.534;2024-02-28T09:57:19;8.15;;;3.75;;
10617;SDS011;5356;43.526;26.534;2024-02-28T09:59:45;4.95;;;3.28;;
10617;SDS011;5356;43.526;26.534;2024-02-28T10:02:11;11.70;;;4.47;;
10617;SDS011;5356;43.526;26.534;2024-02-28T10:04:37;8.45;;;3.88;;
10617;SDS011;5356;43.526;26.534;2024-02-28T10:07:10;6.57;;;3.28;;
10617;SDS011;5356;43.526;26.534;2024-02-28T10:09:40;7.50;;;3.35;;
10617;SDS011;5356;43.526;26.534;2024-02-28T10:12:06;6.20;;;3.00;;
10617;SDS011;5356;43.526;26.534;2024-02-28T10:14:31;27.27;;;7.72;;
10617;SDS011;5356;43.526;26.534;2024-02-28T10:16:57;7.85;;;3.95;;
10617;SDS011;5356;43.526;26.534;2024-02-28T10:19:22;6.38;;;3.45;;
10617;SDS011;5356;43.526;26.534;2024-02-28T10:21:47;6.95;;;3.72;;
10617;SDS011;5356;43.526;26.534;2024-02-28T10:24:13;11.00;;;3.50;;
10617;SDS011;5356;43.526;26.534;2024-02-28T10:26:45;9.52;;;3.78;;
10617;SDS011;5356;43.526;26.534;2024-02-28T10:29:20;10.98;;;3.28;;
10617;SDS011;5356;43.526;26.534;2024-02-28T10:31:46;6.93;;;3.33;;
10617;SDS011;5356;43.526;26.534;2024-02-28T10:34:12;41.17;;;16.05;;
10617;SDS011;5356;43.526;26.534;2024-02-28T10:36:40;10.60;;;4.32;;
10617;SDS011;5356;43.526;26.534;2024-02-28T10:39:07;15.68;;;7.88;;
10617;SDS011;5356;43.526;26.534;2024-02-28T10:41:34;8.98;;;4.45;;
10617;SDS011;5356;43.526;26.534;2024-02-28T10:44:03;7.65;;;4.85;;
10617;SDS011;5356;43.526;26.534;2024-02-28T10:46:28;7.03;;;3.35;;
10617;SDS011;5356;43.526;26.534;2024-02-28T10:48:55;6.80;;;2.95;;
10617;SDS011;5356;43.526;26.534;2024-02-28T10:51:25;8.80;;;3.55;;
10617;SDS011;5356;43.526;26.534;2024-02-28T10:54:06;9.70;;;4.10;;
10617;SDS011;5356;43.526;26.534;2024-02-28T10:56:39;13.38;;;3.97;;
10617;SDS011;5356;43.526;26.534;2024-02-28T10:59:07;8.35;;;4.03;;
10617;SDS011;5356;43.526;26.534;2024-02-28T11:01:36;6.90;;;3.90;;
10617;SDS011;5356;43.526;26.534;2024-02-28T11:04:04;6.95;;;3.85;;
10617;SDS011;5356;43.526;26.534;2024-02-28T11:06:30;5.85;;;3.72;;
10617;SDS011;5356;43.526;26.534;2024-02-28T11:08:58;7.68;;;3.80;;
10617;SDS011;5356;43.526;26.534;2024-02-28T11:11:25;7.93;;;4.18;;
10617;SDS011;5356;43.526;26.534;2024-02-28T11:13:56;11.25;;;3.85;;
10617;SDS011;5356;43.526;26.534;2024-02-28T11:16:29;5.60;;;3.40;;
10617;SDS011;5356;43.526;26.534;2024-02-28T11:21:22;5.35;;;3.20;;
10617;SDS011;5356;43.526;26.534;2024-02-28T11:23:49;4.03;;;3.33;;
10617;SDS011;5356;43.526;26.534;2024-02-28T11:26:15;5.57;;;3.00;;
10617;SDS011;5356;43.526;26.534;2024-02-28T11:28:41;11.45;;;3.90;;
10617;SDS011;5356;43.526;26.534;2024-02-28T11:31:06;6.07;;;3.72;;
10617;SDS011;5356;43.526;26.534;2024-02-28T11:33:31;9.60;;;3.40;;
10617;SDS011;5356;43.526;26.534;2024-02-28T11:36:00;5.05;;;3.50;;
10617;SDS011;5356;43.526;26.534;2024-02-28T11:38:26;7.93;;;3.20;;
10617;SDS011;5356;43.526;26.534;2024-02-28T11:40:52;4.80;;;3.15;;
10617;SDS011;5356;43.526;26.534;2024-02-28T11:43:18;6.43;;;3.90;;
10617;SDS011;5356;43.526;26.534;2024-02-28T11:45:45;7.97;;;2.97;;
10617;SDS011;5356;43.526;26.534;2024-02-28T11:48:14;6.43;;;2.83;;
10617;SDS011;5356;43.526;26.534;2024-02-28T11:50:40;6.80;;;3.15;;
10617;SDS011;5356;43.526;26.534;2024-02-28T11:53:06;11.35;;;3.88;;
10617;SDS011;5356;43.526;26.534;2024-02-28T11:55:32;6.45;;;3.28;;
10617;SDS011;5356;43.526;26.534;2024-02-28T11:57:58;9.32;;;3.03;;
10617;SDS011;5356;43.526;26.534;2024-02-28T12:00:23;6.65;;;2.60;;
10617;SDS011;5356;43.526;26.534;2024-02-28T12:02:50;6.68;;;2.58;;
10617;SDS011;5356;43.526;26.534;2024-02-28T12:05:16;12.40;;;3.47;;
10617;SDS011;5356;43.526;26.534;2024-02-28T12:07:41;4.68;;;2.78;;
10617;SDS011;5356;43.526;26.534;2024-02-28T12:10:08;8.65;;;3.58;;
10617;SDS011;5356;43.526;26.534;2024-02-28T12:12:34;9.02;;;4.25;;
10617;SDS011;5356;43.526;26.534;2024-02-28T12:15:00;6.32;;;2.50;;
10617;SDS011;5356;43.526;26.534;2024-02-28T12:17:29;7.65;;;3.78;;
10617;SDS011;5356;43.526;26.534;2024-02-28T12:19:55;8.45;;;3.88;;
10617;SDS011;5356;43.526;26.534;2024-02-28T12:22:21;7.95;;;3.50;;
10617;SDS011;5356;43.526;26.534;2024-02-28T12:24:46;5.05;;;3.17;;
10617;SDS011;5356;43.526;26.534;2024-02-28T12:27:12;5.55;;;2.70;;
10617;SDS011;5356;43.526;26.534;2024-02-28T12:29:38;6.35;;;2.63;;
10617;SDS011;5356;43.526;26.534;2024-02-28T12:32:03;5.90;;;2.53;;
10617;SDS011;5356;43.526;26.534;2024-02-28T12:34:29;3.85;;;2.60;;
10617;SDS011;5356;43.526;26.534;2024-02-28T12:36:54;10.82;;;2.88;;
10617;SDS011;5356;43.526;26.534;2024-02-28T12:39:20;5.00;;;2.60;;
10617;SDS011;5356;43.526;26.534;2024-02-28T12:41:45;10.95;;;2.72;;
10617;SDS011;5356;43.526;26.534;2024-02-28T12:44:11;5.70;;;2.80;;
10617;SDS011;5356;43.526;26.534;2024-02-28T12:46:36;8.07;;;3.20;;
10617;SDS011;5356;43.526;26.534;2024-02-28T12:49:02;6.40;;;3.30;;
10617;SDS011;5356;43.526;26.534;2024-02-28T12:51:38;9.65;;;4.00;;
10617;SDS011;5356;43.526;26.534;2024-02-28T12:54:09;17.45;;;5.07;;
10617;SDS011;5356;43.526;26.534;2024-02-28T12:56:35;12.20;;;3.80;;
10617;SDS011;5356;43.526;26.534;2024-02-28T12:59:01;7.93;;;3.97;;
10617;SDS011;5356;43.526;26.534;2024-02-28T13:01:27;7.38;;;3.25;;
10617;SDS011;5356;43.526;26.534;2024-02-28T13:03:54;16.48;;;8.10;;
10617;SDS011;5356;43.526;26.534;2024-02-28T13:06:19;22.17;;;12.52;;
10617;SDS011;5356;43.526;26.534;2024-02-28T13:08:45;13.13;;;6.85;;
10617;SDS011;5356;43.526;26.534;2024-02-28T13:11:11;16.17;;;7.72;;
10617;SDS011;5356;43.526;26.534;2024-02-28T13:13:37;9.77;;;4.38;;
10617;SDS011;5356;43.526;26.534;2024-02-28T13:16:02;4.07;;;2.72;;
10617;SDS011;5356;43.526;26.534;2024-02-28T13:18:28;11.82;;;5.13;;
10617;SDS011;5356;43.526;26.534;2024-02-28T13:20:53;6.35;;;3.50;;
10617;SDS011;5356;43.526;26.534;2024-02-28T13:23:19;15.50;;;4.90;;
10617;SDS011;5356;43.526;26.534;2024-02-28T13:25:44;21.33;;;9.52;;
10617;SDS011;5356;43.526;26.534;2024-02-28T13:28:10;4.65;;;3.20;;
10617;SDS011;5356;43.526;26.534;2024-02-28T13:30:35;14.10;;;4.05;;
10617;SDS011;5356;43.526;26.534;2024-02-28T13:33:02;28.65;;;14.18;;
10617;SDS011;5356;43.526;26.534;2024-02-28T13:35:28;27.92;;;13.13;;
10617;SDS011;5356;43.526;26.534;2024-02-28T13:37:55;49.05;;;22.80;;
10617;SDS011;5356;43.526;26.534;2024-02-28T13:40:25;20.88;;;11.88;;
10617;SDS011;5356;43.526;26.534;2024-02-28T13:42:51;24.98;;;12.85;;
10617;SDS011;5356;43.526;26.534;2024-02-28T13:45:16;7.60;;;4.28;;
10617;SDS011;5356;43.526;26.534;2024-02-28T13:47:42;10.45;;;6.07;;
10617;SDS011;5356;43.526;26.534;2024-02-28T13:50:07;26.30;;;14.55;;
10617;SDS011;5356;43.526;26.534;2024-02-28T13:52:34;36.70;;;21.50;;
10617;SDS011;5356;43.526;26.534;2024-02-28T13:55:00;24.77;;;13.48;;
10617;SDS011;5356;43.526;26.534;2024-02-28T13:57:26;30.10;;;17.27;;
10617;SDS011;5356;43.526;26.534;2024-02-28T13:59:51;13.68;;;9.40;;
10617;SDS011;5356;43.526;26.534;2024-02-28T14:02:19;10.52;;;6.57;;
10617;SDS011;5356;43.526;26.534;2024-02-28T14:04:51;10.75;;;3.92;;
10617;SDS011;5356;43.526;26.534;2024-02-28T14:07:17;10.05;;;5.63;;
10617;SDS011;5356;43.526;26.534;2024-02-28T14:09:43;8.15;;;6.10;;
10617;SDS011;5356;43.526;26.534;2024-02-28T14:12:11;7.65;;;6.72;;
10617;SDS011;5356;43.526;26.534;2024-02-28T14:14:37;11.55;;;3.70;;
10617;SDS011;5356;43.526;26.534;2024-02-28T14:17:04;9.65;;;3.65;;
10617;SDS011;5356;43.526;26.534;2024-02-28T14:19:30;9.23;;;3.55;;
10617;SDS011;5356;43.526;26.534;2024-02-28T14:21:56;7.63;;;6.28;;
10617;SDS011;5356;43.526;26.534;2024-02-28T14:24:21;8.25;;;3.63;;
10617;SDS011;5356;43.526;26.534;2024-02-28T14:26:47;7.25;;;3.65;;
10617;SDS011;5356;43.526;26.534;2024-02-28T14:29:12;7.40;;;4.78;;
10617;SDS011;5356;43.526;26.534;2024-02-28T14:31:38;7.80;;;3.92;;
10617;SDS011;5356;43.526;26.534;2024-02-28T14:34:03;5.10;;;3.63;;
10617;SDS011;5356;43.526;26.534;2024-02-28T14:36:31;9.02;;;5.65;;